Amherst, Virginia
Current Conditions -  °F | °C
As of 1:54 AM on Sunday 26 Oct 2014 (Local Time) from KLYH Reporting Station
Clear Clear  
Wind Chill: 59°   Ceiling: Unl
Heat Index: 59°   Visibility: 10mi
Dew Point: 50°   Wind: 5mph
Humidity: 72%   Direction: 240°WSW
Pressure: 29.83"   Gusts: NA
Location:  37.59°N, 79.05°W
Report Text: KLYH 260554Z AUTO 24004KT 10SM CLR 15/10 A2983 RMK AO2 SLP094 T01500100 10172 20128 55004
Loading
Personal Weather Stations






























Interactive Weather Map New forecast layout! Learn more

10-Day Weather Forecast

Advertisements
Track Severe Weather on mobile